Airport Name : New Kitakyushu

Other Name : Kitakyushu

ICAO : RJFR

IATA : KKJ

FAA :

Latitude : 33.845942

Longitude : 131.034689

Country : Japan

Local Date and Time : 19 Jul 2024 08:24

 

TAF (Terminal Aerodrome Forecast)

TAF RJFR 181711Z 1818/2000 10007KT 8000 -SHRA FEW010 SCT015 BKN030 TEMPO 1821/1905 4000 -TSRA BR FEW010 SCT015 FEW025CB BKN030 BECMG 1900/1902 19010KT

 

METAR (METeorological Aerodrome Report)

RJFR 182300Z 19007KT 160V230 9999 FEW020 BKN170 31/24 Q1009

RJFR 182200Z 17006KT 150V230 9999 FEW025 BKN/// 30/24 Q1008

RJFR 182100Z 20008KT 9999 FEW020 SCT100 BKN/// 30/23 Q1008

RJFR 182000Z AUTO 19008KT 9999 FEW036 BKN220 29/24 Q1007